Time;durP1;ratioP1;P1;durP2;ratioP2;P2;SDS_P1;SDS_P2;PMS_P1;PMS_P2;Temp;Humidity;BMP_temperature;BMP_pressure;BME280_temperature;BME280_humidity;BME280_pressure;Samples;Min_cycle;Max_cycle;Signal;HPM_P1;HPM_P2
2023/05/20 00:02:00;;;;;;;;;14.00;11.00;;;;;18.28;64.40;101820.78;5050742;28;45498;-74
2023/05/20 00:04:26;;;;;;;;;18.00;12.00;;;;;18.28;64.81;101827.91;5050634;28;55382;-78
2023/05/20 00:06:51;;;;;;;;;14.33;11.00;;;;;18.29;64.44;101825.22;5056427;28;53585;-76
2023/05/20 00:09:17;;;;;;;;;15.67;11.33;;;;;18.28;64.57;101822.56;5057296;28;45276;-79
2023/05/20 00:11:42;;;;;;;;;17.33;11.67;;;;;18.26;64.96;101829.69;5057648;28;45581;-79
2023/05/20 00:14:08;;;;;;;;;9.00;9.00;;;;;18.23;65.07;101825.25;5057172;28;49822;-75
2023/05/20 00:16:33;;;;;;;;;14.00;9.00;;;;;18.21;65.17;101827.03;5038270;28;63639;-75
2023/05/20 00:18:59;;;;;;;;;14.33;11.00;;;;;18.18;64.99;101818.16;5039433;28;45438;-75
2023/05/20 00:21:24;;;;;;;;;15.00;10.67;;;;;18.18;65.22;101815.50;5053690;28;45281;-79
2023/05/20 00:23:50;;;;;;;;;11.33;9.33;;;;;18.15;65.55;101816.38;5057130;28;46397;-74
2023/05/20 00:26:15;;;;;;;;;13.00;11.00;;;;;18.15;65.40;101807.47;5056883;28;45297;-75
2023/05/20 00:28:40;;;;;;;;;10.33;10.33;;;;;18.16;65.29;101818.16;5038745;28;45356;-76
2023/05/20 00:31:06;;;;;;;;;16.00;12.67;;;;;18.17;65.59;101822.63;5053849;28;45601;-75
2023/05/20 00:33:31;;;;;;;;;12.00;12.00;;;;;18.15;65.80;101808.34;5037034;28;48442;-76
2023/05/20 00:35:57;;;;;;;;;11.33;9.67;;;;;18.14;65.83;101809.25;5038754;28;45491;-76
2023/05/20 00:38:22;;;;;;;;;15.67;11.67;;;;;18.14;65.76;101803.91;5055792;28;45437;-75
2023/05/20 00:40:47;;;;;;;;;12.33;12.33;;;;;18.09;65.60;101802.16;5056959;28;45446;-76
2023/05/20 00:43:13;;;;;;;;;13.00;10.33;;;;;18.08;65.89;101803.94;5056370;28;55453;-75
2023/05/20 00:45:38;;;;;;;;;12.67;8.00;;;;;18.06;66.04;101800.41;5056188;28;53603;-77
2023/05/20 00:48:04;;;;;;;;;14.33;13.00;;;;;18.04;66.09;101795.03;5036422;28;57403;-77
2023/05/20 00:50:30;;;;;;;;;14.33;12.33;;;;;18.07;65.98;101796.81;5035277;28;45479;-75
2023/05/20 00:52:55;;;;;;;;;13.33;11.00;;;;;18.01;65.71;101786.19;5036039;28;45360;-77
2023/05/20 00:55:21;;;;;;;;;13.00;11.00;;;;;18.00;65.99;101784.38;5051435;28;45277;-75
2023/05/20 00:57:48;;;;;;;;;12.00;11.00;;;;;17.95;65.74;101780.81;5056581;28;45438;-75
2023/05/20 01:00:13;;;;;;;;;12.67;9.67;;;;;17.93;65.75;101777.28;5056856;28;45451;-76
2023/05/20 01:02:39;;;;;;;;;12.00;8.67;;;;;17.88;66.27;101782.66;5056677;28;45923;-77
2023/05/20 01:05:05;;;;;;;;;13.00;10.00;;;;;17.85;66.58;101772.00;5055354;28;52229;-75
2023/05/20 01:07:31;;;;;;;;;12.67;9.67;;;;;17.84;66.66;101771.97;5055695;28;45193;-79
2023/05/20 01:09:56;;;;;;;;;9.33;9.33;;;;;17.83;66.72;101770.19;5050200;28;45414;-77
2023/05/20 01:12:28;;;;;;;;;9.67;9.67;;;;;17.82;66.96;101763.97;5053423;28;61325;-75
2023/05/20 01:15:00;;;;;;;;;11.00;10.00;;;;;17.79;67.27;101769.34;5036333;28;45325;-76
2023/05/20 01:17:31;;;;;;;;;11.00;9.67;;;;;17.77;67.28;101761.31;5051595;28;45424;-75
2023/05/20 01:19:58;;;;;;;;;11.67;10.67;;;;;17.75;67.44;101756.88;5052672;28;45434;-76
2023/05/20 01:22:28;;;;;;;;;14.67;11.67;;;;;17.75;67.52;101763.13;5053798;28;46379;-75
2023/05/20 01:24:53;;;;;;;;;9.00;9.00;;;;;17.72;67.63;101755.09;5055911;28;45463;-80
2023/05/20 01:27:21;;;;;;;;;13.00;10.00;;;;;17.75;67.95;101760.44;5038337;28;45342;-75
2023/05/20 01:29:49;;;;;;;;;10.00;10.00;;;;;17.75;67.93;101754.22;5055558;28;45505;-78
2023/05/20 01:32:19;;;;;;;;;10.00;10.00;;;;;17.74;68.13;101757.78;5055792;28;45348;-76
2023/05/20 01:34:45;;;;;;;;;10.67;9.33;;;;;17.74;68.07;101763.13;5038140;28;45308;-78
2023/05/20 01:37:12;;;;;;;;;9.33;9.00;;;;;17.74;68.47;101763.13;5037983;28;45410;-76
2023/05/20 01:39:40;;;;;;;;;11.33;10.00;;;;;17.73;68.59;101753.31;5052748;28;59336;-75
2023/05/20 01:42:06;;;;;;;;;11.00;11.00;;;;;17.73;68.59;101758.66;5037908;28;45436;-75
2023/05/20 01:44:32;;;;;;;;;11.00;10.00;;;;;17.71;68.92;101755.06;5049293;28;45262;-75
2023/05/20 01:46:58;;;;;;;;;12.00;9.00;;;;;17.70;68.81;101753.31;5037576;28;47078;-76
2023/05/20 01:49:24;;;;;;;;;14.00;11.67;;;;;17.70;69.02;101753.31;5055936;28;45339;-78
2023/05/20 01:51:49;;;;;;;;;13.33;10.00;;;;;17.69;68.84;101749.75;5055169;28;46029;-76
2023/05/20 01:54:15;;;;;;;;;8.33;7.00;;;;;17.68;68.98;101737.25;5055425;28;45308;-79
2023/05/20 01:56:40;;;;;;;;;11.67;10.00;;;;;17.66;69.10;101746.19;5047468;28;51110;-76
2023/05/20 01:59:05;;;;;;;;;14.33;9.67;;;;;17.63;68.93;101743.50;5053494;28;45131;-77
2023/05/20 02:01:31;;;;;;;;;8.33;8.33;;;;;17.59;69.10;101741.78;5053693;28;53559;-75
2023/05/20 02:03:56;;;;;;;;;16.00;10.00;;;;;17.55;69.44;101741.78;5054403;28;54111;-74
2023/05/20 02:06:21;;;;;;;;;14.33;11.00;;;;;17.51;69.70;101740.00;5054113;28;58585;-80
2023/05/20 02:08:47;;;;;;;;;11.00;9.67;;;;;17.49;69.78;101741.78;5054283;28;49454;-77
2023/05/20 02:11:12;;;;;;;;;12.00;10.00;;;;;17.45;69.59;101740.03;5054351;28;46366;-75
2023/05/20 02:13:38;;;;;;;;;14.33;11.33;;;;;17.40;70.14;101738.25;5050057;28;52831;-75
2023/05/20 02:16:03;;;;;;;;;9.00;9.00;;;;;17.37;70.47;101749.84;5054341;28;45480;-79
2023/05/20 02:18:29;;;;;;;;;18.00;13.67;;;;;17.33;70.54;101739.19;5053924;28;45428;-75
2023/05/20 02:20:54;;;;;;;;;7.00;6.67;;;;;17.31;70.67;101747.19;5054167;28;46604;-79
2023/05/20 02:23:19;;;;;;;;;13.00;12.00;;;;;17.28;70.89;101739.19;5054126;28;45540;-78
2023/05/20 02:25:45;;;;;;;;;12.67;11.00;;;;;17.25;71.06;101734.72;5054330;28;45562;-75
2023/05/20 02:28:10;;;;;;;;;15.00;12.67;;;;;17.23;71.21;101741.84;5054262;28;45650;-75
2023/05/20 02:30:39;;;;;;;;;17.67;13.67;;;;;17.19;71.38;101737.41;5054509;28;50506;-76
2023/05/20 02:33:05;;;;;;;;;13.00;11.25;;;;;17.19;71.61;101741.84;5057683;28;46114;-74
2023/05/20 02:35:31;;;;;;;;;13.33;11.67;;;;;17.17;71.76;101738.31;5057855;28;45447;-76
2023/05/20 02:37:56;;;;;;;;;11.67;11.67;;;;;17.14;71.90;101741.84;5058045;28;45637;-80
2023/05/20 02:40:22;;;;;;;;;13.00;10.33;;;;;17.12;71.72;101735.66;5057676;28;45763;-77
2023/05/20 02:42:47;;;;;;;;;12.00;9.00;;;;;17.09;72.05;101730.31;5058083;28;45315;-74
2023/05/20 02:45:12;;;;;;;;;11.67;9.00;;;;;17.06;72.16;101722.31;5038567;28;45636;-76
2023/05/20 02:47:38;;;;;;;;;16.33;10.00;;;;;17.04;72.53;101742.75;5058418;28;45495;-74
2023/05/20 02:50:04;;;;;;;;;10.00;7.00;;;;;17.00;73.14;101730.34;5057088;28;55296;-77
2023/05/20 02:52:29;;;;;;;;;15.67;13.00;;;;;16.99;73.13;101726.78;5057615;28;45315;-75
2023/05/20 02:54:55;;;;;;;;;14.00;10.00;;;;;16.99;73.46;101728.53;5057605;28;45707;-78
2023/05/20 02:57:20;;;;;;;;;17.33;12.00;;;;;16.97;73.66;101728.53;5057429;28;45466;-79
2023/05/20 02:59:46;;;;;;;;;11.67;10.67;;;;;16.94;73.69;101725.91;5054886;28;45285;-75
2023/05/20 03:02:11;;;;;;;;;12.67;11.00;;;;;16.94;74.09;101722.34;5057763;28;45431;-75
2023/05/20 03:04:37;;;;;;;;;9.33;9.33;;;;;16.95;74.24;101722.34;5001806;28;1511575;-75
2023/05/20 03:07:05;;;;;;;;;17.33;12.33;;;;;16.96;74.60;101723.22;5059045;28;45103;-77
2023/05/20 03:09:30;;;;;;;;;13.00;11.00;;;;;16.98;74.40;101721.44;5053841;28;46073;-79
2023/05/20 03:11:56;;;;;;;;;13.00;12.00;;;;;16.98;74.46;101716.09;5058302;28;60770;-75
2023/05/20 03:14:21;;;;;;;;;12.50;12.00;;;;;16.99;74.76;101718.78;5056537;28;49202;-80
2023/05/20 03:16:46;;;;;;;;;12.75;11.50;;;;;16.99;74.82;101718.78;5058345;28;45634;-80
2023/05/20 03:19:12;;;;;;;;;12.50;11.25;;;;;17.00;74.95;101717.00;5039888;28;56004;-75
2023/05/20 03:21:37;;;;;;;;;15.50;12.00;;;;;17.01;75.50;101713.44;5055692;28;45503;-79
2023/05/20 03:24:03;;;;;;;;;15.33;12.33;;;;;17.02;75.41;101705.41;5058380;28;48225;-76
2023/05/20 03:26:29;;;;;;;;;14.75;11.25;;;;;17.02;75.43;101707.19;5057869;28;45559;-80
2023/05/20 03:28:54;;;;;;;;;16.75;13.75;;;;;17.02;75.47;101716.09;5050495;28;46471;-75
2023/05/20 03:31:20;;;;;;;;;12.00;10.67;;;;;17.03;75.75;101711.63;5039954;28;46072;-77
2023/05/20 03:33:45;;;;;;;;;15.00;14.00;;;;;17.04;75.56;101708.06;5057457;28;45458;-75
2023/05/20 03:36:10;;;;;;;;;11.50;11.25;;;;;17.02;75.59;101704.53;5058251;28;45533;-75
2023/05/20 03:38:36;;;;;;;;;14.50;13.25;;;;;17.02;75.69;101705.41;5054741;28;45659;-75
2023/05/20 03:41:01;;;;;;;;;11.25;8.00;;;;;17.02;75.95;101699.19;5056259;28;62339;-75
2023/05/20 03:43:27;;;;;;;;;14.00;12.00;;;;;17.00;75.91;101695.66;5053676;28;45305;-74
2023/05/20 03:45:53;;;;;;;;;17.25;14.00;;;;;16.98;75.99;101692.97;5056754;28;45470;-76
2023/05/20 03:48:19;;;;;;;;;18.50;15.75;;;;;16.96;76.31;101696.53;5057774;28;46642;-75
2023/05/20 03:50:44;;;;;;;;;16.75;13.25;;;;;16.94;76.32;101691.22;5057766;28;45463;-77
2023/05/20 03:53:10;;;;;;;;;17.25;13.50;;;;;16.95;76.46;101694.78;5058222;28;45279;-74
2023/05/20 03:55:35;;;;;;;;;15.25;13.50;;;;;16.95;76.83;101687.66;5057158;28;45400;-75
2023/05/20 03:58:01;;;;;;;;;16.50;12.75;;;;;16.98;76.91;101692.06;5054892;28;57657;-79
2023/05/20 04:00:26;;;;;;;;;13.00;12.00;;;;;16.97;76.96;101683.19;5057260;28;45249;-75
2023/05/20 04:02:52;;;;;;;;;23.00;14.25;;;;;16.97;76.92;101691.19;5057309;28;45385;-78
2023/05/20 04:05:18;;;;;;;;;15.25;12.25;;;;;16.98;77.22;101695.63;5057193;28;45491;-76
2023/05/20 04:07:43;;;;;;;;;17.25;13.75;;;;;16.96;77.21;101701.88;5056975;28;46652;-78
2023/05/20 04:10:09;;;;;;;;;18.00;16.00;;;;;16.96;77.28;101692.09;5052527;28;45448;-79
2023/05/20 04:12:35;;;;;;;;;16.00;14.50;;;;;16.97;77.29;101692.97;5057683;28;45459;-74
2023/05/20 04:15:01;;;;;;;;;14.75;13.50;;;;;16.96;77.48;101689.41;5055771;28;45557;-74
2023/05/20 04:17:30;;;;;;;;;15.25;13.50;;;;;16.96;77.69;101693.88;5057384;28;45385;-74
2023/05/20 04:19:58;;;;;;;;;19.00;13.75;;;;;16.95;77.74;101682.31;5056416;28;45457;-74
2023/05/20 04:22:25;;;;;;;;;21.00;15.67;;;;;16.96;78.15;101691.19;5057116;28;45494;-79
2023/05/20 04:24:50;;;;;;;;;19.25;16.75;;;;;16.97;77.98;101692.97;5056872;28;45538;-74
2023/05/20 04:27:16;;;;;;;;;15.00;13.00;;;;;16.97;77.95;101690.31;5056118;28;46528;-76
2023/05/20 04:29:44;;;;;;;;;14.25;14.25;;;;;16.99;78.00;101691.19;5056251;28;45318;-78
2023/05/20 04:32:13;;;;;;;;;18.50;15.75;;;;;17.00;77.99;101684.97;5035521;28;45492;-74
2023/05/20 04:34:39;;;;;;;;;18.25;14.25;;;;;16.97;77.96;101683.19;5037556;28;45467;-75
2023/05/20 04:37:06;;;;;;;;;20.50;15.75;;;;;16.98;78.33;101684.97;5055424;28;46344;-79
2023/05/20 04:39:32;;;;;;;;;16.75;15.75;;;;;16.99;78.12;101681.44;5056361;28;46515;-75
2023/05/20 04:41:58;;;;;;;;;15.67;12.00;;;;;17.01;78.01;101687.63;5056955;28;45543;-74
2023/05/20 04:44:25;;;;;;;;;16.00;14.00;;;;;17.00;78.56;101693.88;5057130;28;45138;-79
2023/05/20 04:46:51;;;;;;;;;17.50;14.75;;;;;17.00;78.27;101682.31;5053307;28;45735;-77
2023/05/20 04:49:16;;;;;;;;;19.75;15.75;;;;;16.97;78.28;101685.84;5055437;28;45495;-75
2023/05/20 04:51:42;;;;;;;;;17.25;17.25;;;;;16.99;78.33;101680.50;5057034;28;45316;-75
2023/05/20 04:54:08;;;;;;;;;14.67;13.00;;;;;17.00;78.60;101684.97;5055803;28;45419;-76
2023/05/20 04:56:33;;;;;;;;;13.25;13.25;;;;;17.02;78.40;101684.06;5056036;28;46044;-74
2023/05/20 04:58:59;;;;;;;;;17.50;16.25;;;;;17.04;78.68;101681.38;5055341;28;45388;-75
2023/05/20 05:01:24;;;;;;;;;22.25;13.75;;;;;17.03;78.76;101690.28;5056220;28;45574;-74
2023/05/20 05:03:49;;;;;;;;;15.75;14.25;;;;;17.05;79.03;101685.88;5056107;28;45455;-75
2023/05/20 05:06:15;;;;;;;;;19.25;16.00;;;;;17.05;79.04;101676.97;5055161;28;56625;-75
2023/05/20 05:08:40;;;;;;;;;14.75;14.75;;;;;17.10;79.52;101691.16;5050013;28;45491;-74
2023/05/20 05:11:05;;;;;;;;;26.00;17.00;;;;;17.09;79.22;101684.94;5051330;28;45819;-76
2023/05/20 05:13:31;;;;;;;;;18.75;17.00;;;;;17.12;79.19;101679.59;5056092;28;45478;-76
2023/05/20 05:16:00;;;;;;;;;23.25;15.25;;;;;17.12;79.25;101678.72;5054614;28;66294;-76
2023/05/20 05:18:25;;;;;;;;;23.50;15.75;;;;;17.12;79.30;101676.94;5055544;28;45293;-75
2023/05/20 05:21:03;;;;;;;;;22.00;16.25;;;;;17.12;79.54;101665.38;5055763;28;45534;-77
2023/05/20 05:23:29;;;;;;;;;17.50;16.00;;;;;17.10;79.40;101662.72;5037884;28;45380;-75
2023/05/20 05:25:55;;;;;;;;;24.25;17.00;;;;;17.12;79.31;101673.38;5056706;28;46406;-74
2023/05/20 05:28:20;;;;;;;;;21.25;17.75;;;;;17.10;79.42;101667.16;5055823;28;45339;-78
2023/05/20 05:30:46;;;;;;;;;18.50;15.00;;;;;17.12;79.53;101673.38;5056354;28;45289;-75
2023/05/20 05:33:13;;;;;;;;;19.25;17.25;;;;;17.10;79.41;101673.41;5055450;28;56184;-75
2023/05/20 05:35:40;;;;;;;;;16.00;16.00;;;;;17.11;79.39;101676.94;5054477;28;47440;-76
2023/05/20 05:38:05;;;;;;;;;16.50;15.25;;;;;17.14;79.95;101682.25;5055938;28;45473;-75
2023/05/20 05:40:30;;;;;;;;;19.00;15.75;;;;;17.15;80.01;101678.69;5055180;28;45425;-75
2023/05/20 05:42:56;;;;;;;;;17.25;16.50;;;;;17.14;79.72;101674.25;5055726;28;45443;-75
2023/05/20 05:45:21;;;;;;;;;19.00;15.00;;;;;17.16;79.99;101684.06;5055707;28;56587;-75
2023/05/20 05:47:46;;;;;;;;;20.25;15.50;;;;;17.18;80.03;101684.03;5055514;28;52835;-75
2023/05/20 05:50:12;;;;;;;;;20.25;17.50;;;;;17.17;80.12;101676.94;5037913;28;48696;-79
2023/05/20 05:52:37;;;;;;;;;21.50;18.25;;;;;17.21;80.33;101684.03;5054113;28;46986;-74
2023/05/20 05:55:03;;;;;;;;;23.00;17.50;;;;;17.23;80.22;101683.13;5055638;28;49266;-77
2023/05/20 05:57:28;;;;;;;;;21.25;16.75;;;;;17.24;80.26;101679.56;5034947;28;46635;-77
2023/05/20 05:59:53;;;;;;;;;21.25;17.75;;;;;17.25;79.93;101676.00;5052584;28;57281;-75
2023/05/20 06:02:19;;;;;;;;;17.00;16.00;;;;;17.26;80.18;101675.13;5055186;28;57255;-76
2023/05/20 06:04:44;;;;;;;;;19.25;16.50;;;;;17.27;80.24;101671.56;5047224;28;46706;-80
2023/05/20 06:07:10;;;;;;;;;27.00;19.00;;;;;17.29;79.52;101664.44;5054925;28;45494;-79
2023/05/20 06:09:35;;;;;;;;;20.75;16.00;;;;;17.31;79.94;101668.88;5053563;28;45975;-76
2023/05/20 06:12:01;;;;;;;;;18.25;14.75;;;;;17.32;80.36;101665.34;5058233;28;45487;-79
2023/05/20 06:14:26;;;;;;;;;19.50;15.50;;;;;17.32;80.25;101668.88;5054754;28;45682;-76
2023/05/20 06:16:52;;;;;;;;;18.50;16.00;;;;;17.31;80.22;101659.09;5053977;28;45189;-75
2023/05/20 06:19:17;;;;;;;;;22.00;17.25;;;;;17.38;80.25;101668.84;5055300;28;45577;-79
2023/05/20 06:21:42;;;;;;;;;20.75;16.25;;;;;17.38;80.19;101665.31;5036299;28;45324;-80
2023/05/20 06:24:08;;;;;;;;;16.25;14.50;;;;;17.41;80.33;101659.94;5037683;28;48649;-77
2023/05/20 06:26:33;;;;;;;;;21.25;17.50;;;;;17.45;80.37;101667.94;5055400;28;58712;-79
2023/05/20 06:28:59;;;;;;;;;22.25;18.00;;;;;17.48;80.35;101662.59;5053427;28;59396;-75
2023/05/20 06:31:24;;;;;;;;;22.75;20.75;;;;;17.55;80.60;101671.44;5047922;28;57513;-76
2023/05/20 06:33:49;;;;;;;;;20.25;18.00;;;;;17.59;80.35;101665.22;5052050;28;46108;-76
2023/05/20 06:36:16;;;;;;;;;21.50;18.50;;;;;17.62;80.38;101665.19;5052195;28;45469;-76
2023/05/20 06:38:41;;;;;;;;;15.00;14.50;;;;;17.65;80.32;101653.59;5055440;28;46987;-77
2023/05/20 06:41:06;;;;;;;;;17.25;14.75;;;;;17.67;80.29;101652.69;5056585;28;45300;-79
2023/05/20 06:43:32;;;;;;;;;18.50;15.75;;;;;17.74;80.47;101654.50;5053008;28;46293;-78
2023/05/20 06:45:57;;;;;;;;;19.00;16.00;;;;;17.77;80.03;101651.78;5055978;28;45378;-79
2023/05/20 06:48:23;;;;;;;;;17.50;14.25;;;;;17.83;80.00;101649.97;5056490;28;51072;-76
2023/05/20 06:50:48;;;;;;;;;18.00;16.75;;;;;17.86;80.08;101644.63;5058224;28;45342;-75
2023/05/20 06:53:14;;;;;;;;;24.25;17.00;;;;;17.92;80.06;101636.56;5058652;28;45515;-75
2023/05/20 06:55:39;;;;;;;;;20.50;15.50;;;;;17.96;79.92;101643.69;5058535;28;45430;-75
2023/05/20 06:58:05;;;;;;;;;18.00;15.50;;;;;18.00;79.88;101646.31;5057150;28;53256;-75
2023/05/20 07:00:30;;;;;;;;;17.25;16.25;;;;;18.05;79.65;101640.91;5058365;28;45634;-78
2023/05/20 07:02:55;;;;;;;;;21.67;18.00;;;;;18.08;79.63;101635.56;5139657;22;50166;-77
2023/05/20 07:05:21;;;;;;;;;19.67;16.00;;;;;18.14;79.90;101643.53;5056119;28;51972;-80
2023/05/20 07:07:46;;;;;;;;;18.33;15.33;;;;;18.19;79.55;101638.16;5021943;28;45336;-75
2023/05/20 07:10:11;;;;;;;;;19.00;15.00;;;;;18.23;79.39;101638.13;5054727;28;51266;-79
2023/05/20 07:12:37;;;;;;;;;21.00;18.00;;;;;18.26;79.26;101653.25;5053852;28;53159;-77
2023/05/20 07:15:02;;;;;;;;;18.75;17.50;;;;;18.29;79.18;101648.78;5047167;28;46438;-76
2023/05/20 07:17:28;;;;;;;;;24.75;20.00;;;;;18.33;79.16;101639.84;5054854;28;45846;-75
2023/05/20 07:19:55;;;;;;;;;18.00;15.75;;;;;18.37;79.06;101642.47;5054133;28;45432;-78
2023/05/20 07:22:20;;;;;;;;;20.25;17.00;;;;;18.36;78.80;101643.38;5051673;28;46550;-76
2023/05/20 07:24:46;;;;;;;;;19.75;17.00;;;;;18.32;78.63;101637.16;5052998;28;45479;-79
2023/05/20 07:27:11;;;;;;;;;20.00;16.00;;;;;18.31;78.32;101630.91;5058292;28;45414;-75
2023/05/20 07:29:36;;;;;;;;;15.75;15.25;;;;;18.35;78.68;101631.78;5057702;28;48196;-75
2023/05/20 07:32:03;;;;;;;;;23.00;17.50;;;;;18.39;78.79;101630.00;5056743;28;46149;-81
2023/05/20 07:34:28;;;;;;;;;19.50;18.50;;;;;18.39;78.55;101625.53;5056784;28;45861;-77
2023/05/20 07:36:54;;;;;;;;;20.25;17.75;;;;;18.40;78.84;101619.28;5033864;28;45717;-77
2023/05/20 07:39:19;;;;;;;;;19.50;17.75;;;;;18.41;78.66;101620.16;5053398;28;45172;-76
2023/05/20 07:41:45;;;;;;;;;18.00;16.33;;;;;18.43;78.90;101626.38;5056354;28;46552;-81
2023/05/20 07:44:11;;;;;;;;;21.00;17.33;;;;;18.45;78.44;101620.13;5032466;28;45616;-79
2023/05/20 07:46:37;;;;;;;;;21.25;16.00;;;;;18.47;78.55;101620.09;5049605;28;45427;-75
2023/05/20 07:49:03;;;;;;;;;16.33;15.00;;;;;18.50;78.64;101620.97;5045205;28;45521;-74
2023/05/20 07:51:28;;;;;;;;;22.00;17.00;;;;;18.52;78.63;101618.25;5035177;28;45621;-77
2023/05/20 07:53:54;;;;;;;;;18.50;15.50;;;;;18.54;78.70;101608.47;5050886;28;53677;-75
2023/05/20 07:56:20;;;;;;;;;16.00;15.00;;;;;18.56;78.57;101609.31;5057046;28;45387;-78
2023/05/20 07:58:54;;;;;;;;;16.00;14.67;;;;;18.55;78.28;101600.41;5049176;28;45453;-76
2023/05/20 08:01:20;;;;;;;;;23.00;15.67;;;;;18.54;79.13;101598.66;5047941;28;47380;-78
2023/05/20 08:03:45;;;;;;;;;15.00;14.67;;;;;18.52;79.02;101600.44;5052345;28;45485;-75
2023/05/20 08:06:11;;;;;;;;;17.33;15.33;;;;;18.54;79.22;101595.09;5054346;28;45428;-75
2023/05/20 08:08:36;;;;;;;;;17.33;14.33;;;;;18.56;79.15;101590.59;5050763;28;45457;-76
2023/05/20 08:11:02;;;;;;;;;19.67;18.67;;;;;18.56;79.53;101588.81;5037607;28;45491;-75
2023/05/20 08:13:28;;;;;;;;;16.00;16.00;;;;;18.54;79.15;101595.09;5036977;28;45431;-75
2023/05/20 08:15:53;;;;;;;;;16.33;16.33;;;;;18.51;78.95;101592.44;5045616;28;45406;-75
2023/05/20 08:18:19;;;;;;;;;19.75;16.50;;;;;18.44;79.07;101588.94;5056098;28;54034;-75
2023/05/20 08:20:44;;;;;;;;;14.00;14.00;;;;;18.39;78.90;101596.13;5056514;28;47287;-74
2023/05/20 08:23:09;;;;;;;;;14.25;13.25;;;;;18.34;79.83;101589.91;5052317;28;45513;-75
2023/05/20 08:25:36;;;;;;;;;15.00;15.00;;;;;18.38;81.34;101593.47;5048941;28;58011;-75
2023/05/20 08:28:04;;;;;;;;;18.67;13.00;;;;;18.40;80.48;101597.00;5055642;28;45578;-74
2023/05/20 08:30:29;;;;;;;;;16.75;15.00;;;;;18.41;80.32;101586.28;5055887;28;46398;-75
2023/05/20 08:32:55;;;;;;;;;14.33;13.00;;;;;18.41;79.93;101582.72;5056334;28;58134;-76
2023/05/20 08:35:21;;;;;;;;;16.67;14.33;;;;;18.39;80.11;101577.41;5052631;28;46892;-76
2023/05/20 08:37:46;;;;;;;;;19.00;18.00;;;;;18.39;80.34;101574.72;5039759;28;45676;-75
2023/05/20 08:40:12;;;;;;;;;14.00;13.00;;;;;18.43;81.60;101575.56;5049620;28;61567;-75
2023/05/20 08:42:42;;;;;;;;;12.00;10.00;;;;;18.51;81.32;101579.06;5055846;28;45346;-75
2023/05/20 08:45:12;;;;;;;;;8.33;8.33;;;;;18.59;82.65;101574.53;5055329;28;46661;-76
2023/05/20 08:47:44;;;;;;;;;10.33;10.33;;;;;18.69;82.10;101572.66;5050116;28;45410;-75
2023/05/20 08:50:12;;;;;;;;;17.00;15.00;;;;;18.74;82.52;101574.38;5042351;28;46759;-75
2023/05/20 08:52:47;;;;;;;;;13.67;10.67;;;;;18.80;83.95;101565.41;5051170;28;45666;-78
2023/05/20 08:55:16;;;;;;;;;12.67;12.67;;;;;18.83;81.39;101562.69;5043034;28;47114;-72
2023/05/20 08:57:44;;;;;;;;;13.33;12.00;;;;;18.89;81.90;101561.75;5036172;28;45753;-72
2023/05/20 09:00:12;;;;;;;;;15.00;11.00;;;;;18.94;81.66;101567.94;5041240;28;47834;-72
2023/05/20 09:02:40;;;;;;;;;12.00;9.33;;;;;18.98;79.57;101564.31;5047068;28;45580;-76
2023/05/20 09:05:08;;;;;;;;;12.00;9.67;;;;;19.02;79.91;101558.91;5039314;28;47246;-72
2023/05/20 09:07:33;;;;;;;;;11.67;10.33;;;;;19.09;79.95;101557.91;5042957;28;45911;-75
2023/05/20 09:09:58;;;;;;;;;9.00;8.00;;;;;19.18;79.96;101567.63;5045514;28;46367;-76
2023/05/20 09:12:24;;;;;;;;;13.00;11.00;;;;;19.22;78.56;101558.63;5052256;28;45380;-74
2023/05/20 09:14:49;;;;;;;;;7.33;7.33;;;;;19.24;79.05;101558.63;5049424;28;45433;-75
2023/05/20 09:17:16;;;;;;;;;11.00;9.33;;;;;19.32;79.09;101549.56;5049466;28;45639;-75
2023/05/20 09:19:42;;;;;;;;;6.67;6.67;;;;;19.43;79.71;101556.59;5046474;28;45934;-75
2023/05/20 09:22:07;;;;;;;;;8.00;6.67;;;;;19.51;79.05;101552.91;5048812;28;45596;-75
2023/05/20 09:24:32;;;;;;;;;7.67;7.67;;;;;19.60;78.17;101549.22;5050947;28;45577;-75
2023/05/20 09:26:58;;;;;;;;;11.33;9.33;;;;;19.67;76.54;101540.19;5049639;28;45684;-75
2023/05/20 09:29:25;;;;;;;;;7.33;6.00;;;;;19.73;76.97;101545.47;5051007;28;47155;-74
2023/05/20 09:31:50;;;;;;;;;7.00;6.67;;;;;19.80;77.31;101547.13;5051909;28;45661;-74
2023/05/20 09:34:16;;;;;;;;;7.67;7.67;;;;;19.85;76.08;101545.25;5049587;28;45434;-73
2023/05/20 09:36:43;;;;;;;;;10.33;7.00;;;;;19.88;76.72;101529.13;5051775;28;45554;-76
2023/05/20 09:39:13;;;;;;;;;9.33;5.00;;;;;19.98;77.23;101534.34;5041699;28;46803;-77
2023/05/20 09:42:06;;;;;;;;;7.67;7.67;;;;;20.04;76.73;101516.38;5034656;28;45533;-74
2023/05/20 09:44:32;;;;;;;;;7.33;7.33;;;;;20.13;76.00;101531.38;5041022;28;45478;-73
2023/05/20 09:46:58;;;;;;;;;8.00;8.00;;;;;20.17;75.88;101517.03;5049021;28;45547;-74
2023/05/20 09:49:24;;;;;;;;;9.67;8.00;;;;;20.21;75.41;101513.38;5028364;28;45746;-73
2023/05/20 09:51:50;;;;;;;;;10.00;7.00;;;;;20.26;75.21;101513.31;5049591;28;47121;-73
2023/05/20 09:54:19;;;;;;;;;7.67;6.00;;;;;20.32;75.08;101516.75;5028108;28;45554;-73
2023/05/20 09:56:45;;;;;;;;;11.67;7.00;;;;;20.38;75.76;101513.06;5033021;28;45460;-74
2023/05/20 09:59:14;;;;;;;;;8.00;7.67;;;;;20.46;75.15;101518.31;5045362;28;46590;-73
2023/05/20 10:01:39;;;;;;;;;7.00;7.00;;;;;20.51;75.93;101500.34;5037212;28;45452;-73
2023/05/20 10:04:06;;;;;;;;;7.00;7.00;;;;;20.59;74.99;101509.13;5029029;28;63263;-73
2023/05/20 10:06:48;;;;;;;;;9.33;6.00;;;;;20.65;74.10;101495.56;5039689;28;46787;-74
2023/05/20 10:09:35;;;;;;;;;7.33;5.00;;;;;20.73;75.50;101490.97;5050500;28;46932;-74
2023/05/20 10:12:53;;;;;;;;;9.33;7.33;;;;;20.80;74.75;101492.59;5042060;28;46051;-75
2023/05/20 10:15:54;;;;;;;;;6.00;5.00;;;;;20.90;75.41;101493.28;4995599;28;45705;-73
2023/05/20 10:18:29;;;;;;;;;6.00;6.00;;;;;20.98;73.41;101495.78;5044384;28;45570;-73
2023/05/20 10:20:55;;;;;;;;;7.33;6.00;;;;;21.02;71.65;101489.44;5044653;28;46663;-73
2023/05/20 10:23:26;;;;;;;;;5.00;5.00;;;;;21.06;71.39;101480.41;5035472;28;45565;-73
2023/05/20 10:25:53;;;;;;;;;5.00;5.00;;;;;21.09;71.84;101475.88;5046606;28;45852;-72
2023/05/20 10:28:36;;;;;;;;;7.00;5.67;;;;;21.17;72.05;101478.38;5048448;28;45662;-72
2023/05/20 10:31:15;;;;;;;;;8.00;6.33;;;;;21.24;71.18;101482.69;5039953;28;46045;-73
2023/05/20 10:33:45;;;;;;;;;6.00;6.00;;;;;21.31;70.99;101476.28;5048605;28;45571;-73
2023/05/20 10:36:30;;;;;;;;;6.67;4.67;;;;;21.34;70.23;101478.91;5028176;28;45499;-75
2023/05/20 10:38:58;;;;;;;;;6.00;6.00;;;;;21.40;70.85;101478.75;5047926;28;46420;-73
2023/05/20 10:41:25;;;;;;;;;4.00;4.00;;;;;21.43;69.69;101476.00;5046231;28;46821;-73
2023/05/20 10:44:01;;;;;;;;;8.00;6.00;;;;;21.46;70.12;101475.03;5048387;28;45478;-74
2023/05/20 10:46:27;;;;;;;;;6.00;6.00;;;;;21.48;68.76;101470.53;5046800;28;45443;-76
2023/05/20 10:48:53;;;;;;;;;5.00;5.00;;;;;21.50;68.50;101467.78;5049997;28;45497;-75
2023/05/20 10:51:20;;;;;;;;;6.67;6.67;;;;;21.52;68.65;101466.84;5045826;28;48211;-74
2023/05/20 10:53:45;;;;;;;;;6.00;6.00;;;;;21.55;69.42;101458.69;5033305;28;45514;-74
2023/05/20 10:56:17;;;;;;;;;6.00;5.00;;;;;21.61;68.16;101465.72;5050206;28;45468;-73
2023/05/20 10:58:43;;;;;;;;;5.00;5.00;;;;;21.64;68.28;101458.47;5055440;28;45177;-74
2023/05/20 11:01:09;;;;;;;;;8.00;7.00;;;;;21.66;66.87;101461.13;5049793;28;46453;-73
2023/05/20 11:03:35;;;;;;;;;7.33;6.00;;;;;21.70;67.50;101449.38;5053221;28;45570;-73
2023/05/20 11:06:00;;;;;;;;;9.00;7.00;;;;;21.71;67.11;101441.25;5052905;28;45288;-73
2023/05/20 11:08:32;;;;;;;;;6.67;6.67;;;;;21.77;67.60;101440.22;5056491;28;45478;-73
2023/05/20 11:10:57;;;;;;;;;5.00;5.00;;;;;21.83;67.43;101445.44;5047607;28;46634;-74